createdAt,value
2023-04-27T00:00:06.992Z,5.57
2023-04-27T00:03:13.273Z,4.80
2023-04-27T00:06:17.493Z,3.42
2023-04-27T00:09:21.789Z,3.78
2023-04-27T00:12:25.369Z,3.63
2023-04-27T00:15:29.776Z,3.08
2023-04-27T00:18:33.811Z,6.82
2023-04-27T00:21:37.978Z,7.05
2023-04-27T00:24:42.430Z,10.57
2023-04-27T00:27:46.632Z,7.38
2023-04-27T00:30:49.955Z,6.28
2023-04-27T00:33:53.217Z,4.38
2023-04-27T00:36:56.999Z,6.00
2023-04-27T00:40:00.848Z,10.52
2023-04-27T00:43:04.639Z,6.80
2023-04-27T00:46:07.977Z,10.40
2023-04-27T00:49:12.418Z,14.18
2023-04-27T00:52:16.964Z,6.15
2023-04-27T00:55:21.633Z,8.13
2023-04-27T00:58:26.235Z,7.38
2023-04-27T01:01:31.648Z,6.65
2023-04-27T01:04:37.465Z,6.25
2023-04-27T01:07:42.396Z,8.38
2023-04-27T01:10:46.398Z,4.78
2023-04-27T01:13:50.307Z,4.45
2023-04-27T01:16:54.655Z,2.35
2023-04-27T01:19:58.830Z,7.35
2023-04-27T01:23:02.768Z,6.57
2023-04-27T01:26:07.714Z,4.50
2023-04-27T01:29:12.049Z,4.22
2023-04-27T01:32:17.809Z,5.47
2023-04-27T01:35:21.693Z,2.42
2023-04-27T01:38:27.015Z,5.03
2023-04-27T01:41:31.248Z,5.22
2023-04-27T01:44:34.450Z,3.20
2023-04-27T01:47:39.273Z,5.43
2023-04-27T01:50:42.787Z,4.88
2023-04-27T01:53:46.269Z,3.50
2023-04-27T01:56:50.068Z,5.60
2023-04-27T01:59:54.922Z,3.70
2023-04-27T02:03:00.995Z,4.30
2023-04-27T02:06:05.436Z,6.97
2023-04-27T02:09:09.123Z,5.90
2023-04-27T02:12:16.871Z,6.30
2023-04-27T02:15:22.687Z,7.60
2023-04-27T02:18:29.020Z,4.07
2023-04-27T02:21:33.431Z,6.28
2023-04-27T02:24:37.809Z,4.28
2023-04-27T02:27:44.487Z,3.85
2023-04-27T02:30:50.565Z,7.25
2023-04-27T02:33:54.448Z,6.55
2023-04-27T02:37:01.943Z,3.50
2023-04-27T02:40:08.474Z,5.38
2023-04-27T02:46:16.217Z,4.43
2023-04-27T02:49:19.861Z,2.72
2023-04-27T02:52:26.847Z,3.38
2023-04-27T02:55:30.988Z,9.10
2023-04-27T02:58:35.042Z,5.93
2023-04-27T03:01:39.112Z,7.05
2023-04-27T03:04:42.635Z,5.38
2023-04-27T03:07:46.576Z,4.43
2023-04-27T03:10:50.588Z,5.18
2023-04-27T03:13:54.943Z,4.30
2023-04-27T03:16:58.394Z,4.80
2023-04-27T03:20:01.786Z,8.48
2023-04-27T03:23:06.250Z,3.53
2023-04-27T03:26:13.764Z,6.90
2023-04-27T03:29:18.148Z,3.75
2023-04-27T03:32:22.631Z,6.72
2023-04-27T03:35:27.183Z,5.25
2023-04-27T03:38:31.606Z,4.75
2023-04-27T03:41:37.318Z,6.63
2023-04-27T03:44:41.025Z,5.05
2023-04-27T03:47:48.207Z,4.15
2023-04-27T03:50:52.447Z,4.20
2023-04-27T03:53:57.827Z,7.93
2023-04-27T03:57:02.940Z,3.33
2023-04-27T04:00:12.442Z,5.93
2023-04-27T04:03:16.517Z,4.07
2023-04-27T04:06:20.422Z,4.22
2023-04-27T04:09:24.217Z,6.80
2023-04-27T04:12:28.025Z,4.63
2023-04-27T04:15:31.690Z,8.25
2023-04-27T04:18:35.495Z,5.55
2023-04-27T04:21:39.904Z,3.22
2023-04-27T04:24:44.879Z,4.15
2023-04-27T04:27:49.168Z,4.03
2023-04-27T04:30:53.261Z,4.13
2023-04-27T04:33:57.498Z,7.53
2023-04-27T04:37:01.604Z,4.28
2023-04-27T04:40:09.570Z,3.85
2023-04-27T04:43:14.202Z,5.65
2023-04-27T04:46:18.106Z,10.70
2023-04-27T04:49:22.259Z,5.18
2023-04-27T04:52:26.232Z,5.22
2023-04-27T04:55:30.357Z,6.05
2023-04-27T04:58:34.113Z,4.10
2023-04-27T05:01:40.956Z,4.10
2023-04-27T05:04:45.028Z,5.22
2023-04-27T05:07:49.300Z,5.25
2023-04-27T05:10:54.002Z,4.28
2023-04-27T05:13:58.211Z,5.68
2023-04-27T05:17:01.689Z,3.42
2023-04-27T05:20:06.278Z,3.05
2023-04-27T05:23:09.596Z,5.13
2023-04-27T05:26:18.036Z,2.92
2023-04-27T05:29:22.224Z,5.57
2023-04-27T05:32:26.616Z,4.70
2023-04-27T05:35:31.485Z,4.88
2023-04-27T05:38:36.857Z,4.75
2023-04-27T05:41:40.122Z,6.30
2023-04-27T05:44:44.743Z,5.07
2023-04-27T05:47:48.383Z,7.53
2023-04-27T05:50:59.801Z,6.68
2023-04-27T05:54:04.026Z,5.82
2023-04-27T05:57:08.240Z,4.72
2023-04-27T06:00:13.444Z,4.28
2023-04-27T06:03:18.188Z,6.60
2023-04-27T06:06:21.793Z,5.35
2023-04-27T06:09:26.369Z,5.60
2023-04-27T06:12:29.971Z,3.92
2023-04-27T06:15:34.806Z,4.40
2023-04-27T06:18:38.677Z,4.95
2023-04-27T06:21:42.909Z,6.13
2023-04-27T06:24:47.437Z,3.33
2023-04-27T06:27:51.582Z,4.63
2023-04-27T06:30:55.946Z,4.85
2023-04-27T06:33:59.649Z,3.45
2023-04-27T06:37:03.609Z,5.00
2023-04-27T06:40:09.029Z,4.28
2023-04-27T06:43:12.817Z,4.45
2023-04-27T06:46:16.954Z,6.85
2023-04-27T06:49:21.064Z,3.80
2023-04-27T06:52:24.988Z,6.03
2023-04-27T06:55:28.660Z,5.05
2023-04-27T06:58:32.705Z,4.55
2023-04-27T07:01:36.970Z,4.63
2023-04-27T07:04:41.602Z,5.13
2023-04-27T07:07:45.734Z,7.57
2023-04-27T07:10:50.268Z,4.35
2023-04-27T07:13:54.313Z,7.63
2023-04-27T07:16:58.794Z,4.10
2023-04-27T07:20:05.413Z,4.82
2023-04-27T07:23:09.266Z,3.47
2023-04-27T07:26:13.614Z,6.13
2023-04-27T07:29:26.934Z,2.70
2023-04-27T07:32:31.752Z,5.90
2023-04-27T07:35:35.971Z,3.85
2023-04-27T07:38:40.439Z,6.07
2023-04-27T07:41:44.882Z,5.15
2023-04-27T07:44:51.356Z,8.88
2023-04-27T07:47:57.570Z,7.23
2023-04-27T07:54:06.643Z,3.92
2023-04-27T07:57:14.286Z,5.15
2023-04-27T08:00:19.429Z,4.47
2023-04-27T08:03:23.793Z,5.40
2023-04-27T08:06:29.902Z,6.75
2023-04-27T08:09:33.909Z,6.20
2023-04-27T08:12:37.640Z,4.40
2023-04-27T08:15:41.178Z,4.45
2023-04-27T08:18:45.672Z,6.00
2023-04-27T08:21:49.709Z,6.13
2023-04-27T08:24:53.477Z,7.88
2023-04-27T08:27:56.945Z,9.20
2023-04-27T08:31:01.021Z,14.18
2023-04-27T08:34:04.829Z,11.27
2023-04-27T08:37:09.141Z,7.75
2023-04-27T08:40:13.672Z,13.57
2023-04-27T08:43:17.956Z,11.95
2023-04-27T08:46:23.449Z,18.58
2023-04-27T08:49:27.610Z,12.25
2023-04-27T08:52:31.349Z,9.80
2023-04-27T08:55:35.227Z,12.82
2023-04-27T08:58:39.967Z,15.90
2023-04-27T09:01:49.550Z,17.90
2023-04-27T09:04:53.606Z,13.38
2023-04-27T09:08:06.668Z,10.68
2023-04-27T09:11:10.398Z,7.47
2023-04-27T09:14:22.593Z,8.13
2023-04-27T09:17:28.466Z,10.15
2023-04-27T09:20:32.418Z,8.38
2023-04-27T09:23:39.292Z,8.85
2023-04-27T09:26:50.288Z,5.63
2023-04-27T09:29:53.868Z,8.27
2023-04-27T09:33:02.602Z,13.38
2023-04-27T09:36:07.607Z,7.03
2023-04-27T09:39:12.190Z,15.10
2023-04-27T09:42:16.703Z,11.07
2023-04-27T09:45:21.063Z,14.77
2023-04-27T09:48:26.271Z,16.67
2023-04-27T09:51:30.248Z,12.02
2023-04-27T09:54:35.290Z,13.15
2023-04-27T09:57:49.318Z,17.85
2023-04-27T10:01:22.262Z,12.48
2023-04-27T10:04:49.876Z,14.25
2023-04-27T10:07:53.899Z,19.20
2023-04-27T10:10:59.419Z,20.98
2023-04-27T10:14:09.101Z,12.85
2023-04-27T10:17:13.262Z,14.32
2023-04-27T10:20:18.174Z,13.32
2023-04-27T10:23:29.853Z,17.27
2023-04-27T10:26:35.703Z,17.35
2023-04-27T10:29:44.350Z,14.65
2023-04-27T10:32:56.199Z,7.63
2023-04-27T10:36:01.429Z,15.32
2023-04-27T10:39:15.622Z,12.65
2023-04-27T10:42:29.435Z,9.32
2023-04-27T10:45:35.981Z,6.72
2023-04-27T10:48:45.132Z,4.78
2023-04-27T10:51:53.953Z,5.18
2023-04-27T10:54:58.355Z,7.47
2023-04-27T10:58:02.699Z,6.22
2023-04-27T11:01:08.938Z,5.90
2023-04-27T11:04:13.044Z,6.93
2023-04-27T11:07:26.912Z,8.20
2023-04-27T11:10:30.123Z,8.63
2023-04-27T11:13:34.949Z,6.32
2023-04-27T11:16:47.441Z,7.20
2023-04-27T11:19:51.818Z,11.65
2023-04-27T11:22:55.337Z,10.02
2023-04-27T11:25:58.592Z,15.05
2023-04-27T11:29:02.444Z,19.25
2023-04-27T11:32:06.286Z,15.55
2023-04-27T11:35:11.061Z,17.08
2023-04-27T11:38:19.073Z,17.13
2023-04-27T11:41:24.257Z,15.52
2023-04-27T11:44:28.758Z,16.13
2023-04-27T11:47:34.371Z,18.30
2023-04-27T11:50:37.989Z,22.27
2023-04-27T11:53:42.992Z,18.00
2023-04-27T11:56:47.469Z,13.20
2023-04-27T11:59:53.772Z,10.60
2023-04-27T12:03:01.704Z,10.13
2023-04-27T12:06:27.650Z,17.02
2023-04-27T12:12:39.410Z,11.95
2023-04-27T12:15:44.227Z,8.15
2023-04-27T12:18:52.403Z,12.75
2023-04-27T12:21:57.414Z,12.25
2023-04-27T12:25:00.842Z,20.08
2023-04-27T12:28:05.165Z,14.00
2023-04-27T12:31:09.067Z,15.73
2023-04-27T12:34:13.174Z,17.27
2023-04-27T12:37:16.925Z,15.55
2023-04-27T12:40:22.018Z,18.52
2023-04-27T12:43:25.416Z,37.00
2023-04-27T12:46:29.466Z,25.60
2023-04-27T12:49:33.471Z,28.73
2023-04-27T12:52:37.518Z,32.05
2023-04-27T12:55:41.305Z,17.25
2023-04-27T12:58:45.157Z,23.33
2023-04-27T13:01:49.601Z,22.20
2023-04-27T13:04:53.936Z,13.95
2023-04-27T13:07:57.592Z,14.48
2023-04-27T13:11:02.313Z,28.33
2023-04-27T13:14:06.367Z,20.10
2023-04-27T13:20:42.645Z,19.58
2023-04-27T13:23:48.353Z,18.75
2023-04-27T13:26:53.810Z,28.17
2023-04-27T13:29:58.813Z,29.00
2023-04-27T13:33:18.384Z,23.05
2023-04-27T13:36:27.511Z,14.18
2023-04-27T13:39:31.113Z,12.68
2023-04-27T13:42:35.556Z,11.25
2023-04-27T13:45:41.056Z,19.42
2023-04-27T13:48:44.845Z,12.20
2023-04-27T13:51:48.751Z,14.23
2023-04-27T13:54:53.192Z,12.13
2023-04-27T13:57:57.639Z,7.15
2023-04-27T14:01:01.767Z,7.53
2023-04-27T14:04:06.650Z,5.82
2023-04-27T14:07:10.309Z,6.75
2023-04-27T14:10:15.817Z,7.00
2023-04-27T14:13:20.198Z,5.03
2023-04-27T14:16:25.375Z,9.07
2023-04-27T14:19:28.582Z,9.82
2023-04-27T14:22:32.735Z,18.80
2023-04-27T14:25:36.222Z,21.50
2023-04-27T14:28:41.260Z,17.88
2023-04-27T14:31:45.513Z,10.55
2023-04-27T14:34:49.712Z,13.30
2023-04-27T14:37:53.945Z,13.30
2023-04-27T14:40:59.766Z,15.55
2023-04-27T14:44:04.844Z,14.45
2023-04-27T14:47:08.308Z,7.80
2023-04-27T14:50:12.365Z,13.15
2023-04-27T14:53:15.995Z,12.27
2023-04-27T14:56:20.047Z,10.98
2023-04-27T14:59:24.406Z,14.38
2023-04-27T15:02:28.198Z,9.35
2023-04-27T15:05:32.662Z,7.50
2023-04-27T15:08:35.793Z,9.65
2023-04-27T15:11:40.036Z,7.60
2023-04-27T15:14:44.051Z,8.88
2023-04-27T15:24:10.142Z,7.10
2023-04-27T15:27:14.137Z,8.90
2023-04-27T15:30:17.336Z,6.28
2023-04-27T15:33:21.400Z,9.40
2023-04-27T15:36:27.732Z,8.43
2023-04-27T15:39:31.087Z,8.02
2023-04-27T15:42:34.851Z,8.05
2023-04-27T15:45:38.652Z,10.65
2023-04-27T15:48:42.615Z,9.20
2023-04-27T15:51:46.476Z,11.27
2023-04-27T15:54:50.510Z,6.65
2023-04-27T15:57:54.518Z,7.40
2023-04-27T16:01:00.537Z,9.85
2023-04-27T16:04:04.792Z,8.80
2023-04-27T16:07:08.636Z,6.65
2023-04-27T16:10:13.091Z,10.15
2023-04-27T16:13:17.028Z,8.25
2023-04-27T16:16:21.981Z,8.23
2023-04-27T16:19:27.070Z,6.50
2023-04-27T16:22:30.567Z,8.07
2023-04-27T16:25:34.030Z,8.07
2023-04-27T16:31:43.310Z,6.07
2023-04-27T16:34:47.397Z,4.97
2023-04-27T16:37:51.371Z,7.25
2023-04-27T16:40:56.663Z,7.05
2023-04-27T16:44:00.708Z,10.43
2023-04-27T16:47:04.228Z,8.50
2023-04-27T16:50:08.444Z,6.95
2023-04-27T16:53:20.229Z,7.40
2023-04-27T16:56:31.329Z,7.45
2023-04-27T16:59:35.286Z,5.53
2023-04-27T17:02:40.395Z,3.92
2023-04-27T17:05:45.220Z,5.53
2023-04-27T17:08:48.419Z,5.57
2023-04-27T17:11:51.574Z,6.13
2023-04-27T17:14:55.418Z,4.97
2023-04-27T17:18:02.617Z,5.38
2023-04-27T17:21:06.448Z,4.88
2023-04-27T17:24:10.771Z,6.30
2023-04-27T17:27:14.920Z,6.45
2023-04-27T17:30:18.335Z,5.95
2023-04-27T17:33:22.281Z,6.85
2023-04-27T17:36:25.264Z,10.98
2023-04-27T17:39:29.501Z,8.65
2023-04-27T17:42:32.942Z,6.07
2023-04-27T17:45:37.395Z,7.53
2023-04-27T17:48:41.270Z,7.57
2023-04-27T17:51:46.314Z,6.00
2023-04-27T17:54:49.973Z,4.93
2023-04-27T17:57:53.806Z,6.78
2023-04-27T18:00:57.067Z,6.60
2023-04-27T18:04:03.763Z,4.80
2023-04-27T18:07:08.621Z,5.13
2023-04-27T18:10:12.522Z,5.20
2023-04-27T18:13:15.925Z,5.03
2023-04-27T18:16:19.462Z,5.90
2023-04-27T18:19:23.591Z,6.05
2023-04-27T18:22:28.163Z,5.45
2023-04-27T18:25:32.663Z,6.40
2023-04-27T18:28:36.160Z,5.53
2023-04-27T18:31:40.096Z,4.15
2023-04-27T18:34:44.546Z,4.95
2023-04-27T18:37:49.670Z,4.43
2023-04-27T18:40:53.741Z,5.68
2023-04-27T18:44:05.244Z,6.80
2023-04-27T18:48:12.116Z,5.25
2023-04-27T18:51:15.859Z,5.65
2023-04-27T18:54:19.570Z,7.40
2023-04-27T18:57:23.467Z,4.55
2023-04-27T19:00:27.290Z,4.40
2023-04-27T19:03:31.748Z,7.47
2023-04-27T19:06:36.454Z,5.85
2023-04-27T19:09:40.840Z,7.22
2023-04-27T19:12:45.272Z,5.60
2023-04-27T19:15:49.137Z,9.35
2023-04-27T19:18:53.344Z,9.23
2023-04-27T19:21:59.004Z,9.40
2023-04-27T19:25:03.176Z,9.23
2023-04-27T19:28:06.731Z,8.80
2023-04-27T19:31:11.212Z,6.88
2023-04-27T19:34:14.687Z,9.50
2023-04-27T19:37:18.680Z,8.07
2023-04-27T19:40:22.115Z,6.65
2023-04-27T19:43:26.323Z,8.02
2023-04-27T19:46:31.341Z,15.27
2023-04-27T19:49:34.765Z,6.68
2023-04-27T19:52:38.961Z,5.93
2023-04-27T19:55:43.040Z,5.38
2023-04-27T19:58:47.461Z,7.00
2023-04-27T20:01:51.216Z,6.55
2023-04-27T20:04:55.752Z,5.85
2023-04-27T20:07:59.453Z,5.65
2023-04-27T20:11:03.514Z,6.65
2023-04-27T20:14:07.314Z,7.38
2023-04-27T20:17:11.507Z,6.50
2023-04-27T20:20:15.412Z,6.82
2023-04-27T20:23:19.568Z,18.35
2023-04-27T20:26:23.412Z,32.40
2023-04-27T20:29:27.351Z,27.23
2023-04-27T20:32:31.221Z,34.70
2023-04-27T20:35:36.883Z,28.38
2023-04-27T20:38:41.278Z,26.40
2023-04-27T20:41:44.802Z,37.22
2023-04-27T20:44:49.132Z,29.30
2023-04-27T20:47:53.609Z,30.30
2023-04-27T20:50:56.773Z,36.25
2023-04-27T20:54:01.207Z,33.70
2023-04-27T20:57:14.873Z,27.10
2023-04-27T21:00:19.351Z,29.55
2023-04-27T21:03:23.477Z,31.08
2023-04-27T21:06:26.980Z,40.45
2023-04-27T21:09:30.910Z,23.30
2023-04-27T21:12:34.717Z,24.38
2023-04-27T21:15:38.964Z,21.15
2023-04-27T21:18:42.767Z,19.25
2023-04-27T21:21:46.922Z,23.52
2023-04-27T21:24:50.711Z,21.55
2023-04-27T21:27:54.138Z,20.48
2023-04-27T21:30:57.274Z,20.38
2023-04-27T21:34:01.834Z,25.48
2023-04-27T21:37:05.230Z,29.23
2023-04-27T21:40:09.761Z,33.63
2023-04-27T21:43:12.751Z,31.75
2023-04-27T21:46:16.183Z,29.60
2023-04-27T21:49:20.280Z,29.30
2023-04-27T21:52:23.825Z,27.48
2023-04-27T21:55:27.613Z,42.38
2023-04-27T21:58:31.504Z,57.55
2023-04-27T22:01:35.437Z,55.70
2023-04-27T22:04:40.707Z,56.70
2023-04-27T22:07:46.566Z,53.28
2023-04-27T22:10:50.034Z,50.30
2023-04-27T22:13:53.275Z,54.97
2023-04-27T22:16:59.086Z,43.05
2023-04-27T22:20:03.056Z,46.17
2023-04-27T22:23:06.035Z,49.58
2023-04-27T22:26:09.420Z,43.17
2023-04-27T22:29:13.811Z,42.55
2023-04-27T22:32:18.155Z,41.80
2023-04-27T22:35:26.983Z,31.77
2023-04-27T22:38:31.832Z,34.88
2023-04-27T22:41:35.398Z,36.20
2023-04-27T22:44:41.544Z,31.42
2023-04-27T22:47:46.426Z,40.92
2023-04-27T22:50:50.459Z,50.42
2023-04-27T22:53:54.947Z,62.78
2023-04-27T22:56:59.482Z,51.05
2023-04-27T23:00:02.830Z,45.50
2023-04-27T23:03:06.430Z,32.78
2023-04-27T23:06:14.811Z,33.88
2023-04-27T23:09:18.772Z,41.97
2023-04-27T23:12:22.628Z,41.33
2023-04-27T23:15:26.755Z,46.90
2023-04-27T23:18:30.363Z,58.58
2023-04-27T23:21:34.461Z,61.72
2023-04-27T23:24:37.861Z,49.30
2023-04-27T23:27:41.525Z,51.45
2023-04-27T23:30:44.828Z,41.08
2023-04-27T23:33:48.407Z,36.80
2023-04-27T23:36:52.410Z,41.58
2023-04-27T23:39:56.197Z,33.38
2023-04-27T23:43:00.430Z,32.30
2023-04-27T23:46:04.336Z,31.92
2023-04-27T23:49:08.212Z,36.60
2023-04-27T23:52:13.151Z,33.50
2023-04-27T23:55:17.347Z,29.85
2023-04-27T23:58:21.037Z,29.02
